Suggestion Precise snow and wind.

Julean

New member
Winds
Something like local wind currents and phenomena. Like sea and land because of temperature breeze.. Like Local afternoon stormy sea breezes like in the Mediterranean. Special approach wind situationes.

Snow
Then Denmark was covered in snow until mid March.. while had like that day 7 degrees plus celcius. We only had about 14 days of Snow cover altogether (More days of Snow cover in north Jutland) because DK is coastal climate.

This website show the snow cover and depth.


Approach EKAH in 4 of March; EKAH 031920Z AUTO VRB04KT 9999NDV BKN096/// 07/04 Q0994.


Here is windy showing the snowcover..



All the best

Jens
 
Last edited:
Top